createdAt,value
2022-10-21T13:06:37.392Z,14.02
2022-10-21T13:10:40.763Z,12.07
2022-10-21T13:14:47.903Z,13.55
2022-10-21T13:18:51.081Z,12.05
2022-10-21T13:23:14.762Z,9.35
2022-10-21T13:27:36.779Z,10.15
2022-10-21T13:31:40.568Z,12.95
2022-10-21T13:35:45.053Z,11.43
2022-10-21T13:39:52.533Z,11.80
2022-10-21T13:43:59.458Z,12.45
2022-10-21T13:48:15.446Z,13.88
2022-10-21T13:52:26.613Z,14.10
2022-10-21T13:56:36.065Z,13.73
2022-10-21T14:00:41.835Z,11.20
2022-10-21T14:04:47.882Z,10.63
2022-10-21T14:08:51.239Z,13.65
2022-10-21T14:12:57.298Z,14.95
2022-10-21T14:17:18.736Z,18.10
2022-10-21T14:21:49.297Z,10.80
2022-10-21T14:30:50.156Z,13.85
2022-10-21T14:35:12.386Z,12.00
2022-10-21T14:39:21.125Z,14.02
2022-10-21T14:54:32.197Z,15.85
2022-10-21T14:58:38.261Z,19.23
2022-10-21T15:02:45.663Z,19.00
2022-10-21T15:07:02.244Z,13.32
2022-10-21T15:11:05.719Z,16.80
2022-10-21T15:15:49.736Z,14.50
2022-10-21T15:19:58.120Z,14.00
2022-10-21T15:29:06.003Z,15.57
2022-10-21T15:33:44.186Z,19.50
2022-10-21T15:38:07.651Z,14.10
2022-10-21T15:42:57.914Z,16.63
2022-10-21T15:47:11.314Z,22.00
2022-10-21T15:51:18.066Z,18.10
2022-10-21T15:59:35.105Z,21.83
2022-10-21T16:03:45.909Z,16.60
2022-10-21T16:07:52.404Z,17.85
2022-10-21T16:12:01.861Z,17.27
2022-10-21T16:16:25.289Z,18.20
2022-10-21T16:20:42.832Z,10.23
2022-10-21T16:25:16.985Z,13.70
2022-10-21T16:29:27.851Z,10.93
2022-10-21T16:33:59.959Z,12.55
2022-10-21T16:43:01.420Z,9.77
2022-10-21T16:47:07.020Z,15.07
2022-10-21T16:51:15.267Z,11.57
2022-10-21T16:55:46.683Z,14.40
2022-10-21T16:59:57.565Z,11.25
2022-10-21T17:04:09.662Z,9.50
2022-10-21T17:08:12.532Z,12.20
2022-10-21T17:12:15.397Z,9.90
2022-10-21T17:16:20.436Z,14.57
2022-10-21T17:20:23.266Z,9.80
2022-10-21T17:24:27.889Z,9.70
2022-10-21T17:28:30.701Z,13.98
2022-10-21T17:32:33.848Z,10.02
2022-10-21T17:36:38.901Z,9.48
2022-10-21T17:40:41.802Z,8.50
2022-10-21T17:44:45.535Z,11.75
2022-10-21T17:48:52.626Z,8.18
2022-10-21T17:52:57.820Z,9.60
2022-10-21T17:57:03.001Z,11.07
2022-10-21T18:01:08.997Z,9.17
2022-10-21T18:05:11.989Z,9.27
2022-10-21T18:09:15.690Z,8.70
2022-10-21T18:13:19.914Z,8.98
2022-10-21T18:17:22.802Z,8.88
2022-10-21T18:21:26.140Z,9.93
2022-10-21T18:25:28.901Z,9.27
2022-10-21T18:29:32.311Z,16.00
2022-10-21T18:33:35.379Z,10.30
2022-10-21T18:37:38.841Z,8.25
2022-10-21T18:41:42.377Z,14.25
2022-10-21T18:45:47.875Z,12.87
2022-10-21T18:49:56.014Z,17.02
2022-10-21T18:54:01.171Z,8.60
2022-10-21T18:58:04.961Z,7.90
2022-10-21T19:02:37.289Z,9.02
2022-10-21T19:06:43.333Z,6.82
2022-10-21T19:10:46.947Z,10.40
2022-10-21T19:14:50.030Z,7.28
2022-10-21T19:18:54.787Z,6.93
2022-10-21T19:23:00.059Z,6.97
2022-10-21T19:27:03.137Z,8.07
2022-10-21T19:31:12.205Z,9.05
2022-10-21T19:35:15.717Z,6.88
2022-10-21T19:39:20.979Z,7.90
2022-10-21T19:43:28.740Z,7.70
2022-10-21T19:47:36.883Z,8.10
2022-10-21T19:51:41.035Z,8.95
2022-10-21T19:55:51.094Z,8.52
2022-10-21T19:59:56.513Z,7.40
2022-10-21T20:04:02.106Z,7.25
2022-10-21T20:08:09.299Z,7.68
2022-10-21T20:12:14.125Z,7.68
2022-10-21T20:16:22.286Z,6.25
2022-10-21T20:20:29.807Z,8.02
2022-10-21T20:24:46.322Z,7.63
2022-10-21T20:28:53.975Z,7.78
2022-10-21T20:32:57.073Z,8.35
2022-10-21T20:37:00.967Z,9.00
2022-10-21T20:41:08.375Z,9.20
2022-10-21T20:45:12.199Z,7.97
2022-10-21T20:49:17.247Z,8.00
2022-10-21T20:53:19.959Z,9.13
2022-10-21T20:57:23.448Z,7.50
2022-10-21T21:01:31.495Z,8.25
2022-10-21T21:05:38.117Z,7.47
2022-10-21T21:10:01.571Z,7.78
2022-10-21T21:14:09.065Z,8.73
2022-10-21T21:18:14.620Z,8.20
2022-10-21T21:22:18.247Z,7.25
2022-10-21T21:26:23.616Z,7.57
2022-10-21T21:30:26.632Z,8.50
2022-10-21T21:34:29.662Z,11.07
2022-10-21T21:42:58.359Z,7.85
2022-10-21T21:47:08.224Z,8.65
2022-10-21T21:51:14.698Z,10.10
2022-10-21T21:55:20.120Z,8.80
2022-10-21T21:59:26.548Z,10.35
2022-10-21T22:03:35.374Z,9.00
2022-10-21T22:07:47.505Z,10.52
2022-10-21T22:11:50.346Z,8.88
2022-10-21T22:15:55.029Z,9.38
2022-10-21T22:20:12.209Z,9.32
2022-10-21T22:24:23.069Z,12.35
2022-10-21T22:28:26.211Z,13.98
2022-10-21T22:32:29.248Z,9.60
2022-10-21T22:36:32.527Z,9.57
2022-10-21T22:40:35.546Z,10.80
2022-10-21T22:44:38.398Z,10.98
2022-10-21T22:48:49.819Z,8.73
2022-10-21T22:52:54.143Z,12.65
2022-10-21T22:57:01.813Z,9.65
2022-10-21T23:01:12.742Z,9.90
2022-10-21T23:05:17.368Z,11.52
2022-10-21T23:09:20.197Z,11.60
2022-10-21T23:13:25.302Z,10.52
2022-10-21T23:17:30.548Z,12.32
2022-10-21T23:21:34.446Z,13.15
2022-10-21T23:25:37.389Z,13.30
2022-10-21T23:29:41.469Z,9.93
2022-10-21T23:33:49.692Z,12.70
2022-10-21T23:42:12.934Z,11.02
2022-10-21T23:46:24.208Z,8.43
2022-10-21T23:50:28.967Z,11.23
2022-10-21T23:54:33.485Z,9.73
2022-10-21T23:58:38.113Z,9.57
